sensor_id;sensor_type;location;lat;lon;timestamp;pressure;altitude;pressure_sealevel;temperature;humidity
69171;BME280;56279;47.902;12.308;2023-05-22T00:00:29;94936.47;;;15.69;61.77
69171;BME280;56279;47.902;12.308;2023-05-22T00:02:33;94942.13;;;15.68;61.81
69171;BME280;56279;47.902;12.308;2023-05-22T00:04:38;94938.53;;;15.64;61.75
69171;BME280;56279;47.902;12.308;2023-05-22T00:06:41;94934.63;;;15.61;61.96
69171;BME280;56279;47.902;12.308;2023-05-22T00:08:43;94937.59;;;15.60;62.18
69171;BME280;56279;47.902;12.308;2023-05-22T00:10:44;94933.69;;;15.57;61.84
69171;BME280;56279;47.902;12.308;2023-05-22T00:12:46;94933.22;;;15.55;62.21
69171;BME280;56279;47.902;12.308;2023-05-22T00:14:47;94936.22;;;15.54;61.98
69171;BME280;56279;47.902;12.308;2023-05-22T00:16:48;94933.09;;;15.52;62.15
69171;BME280;56279;47.902;12.308;2023-05-22T00:18:51;94928.06;;;15.50;62.24
69171;BME280;56279;47.902;12.308;2023-05-22T00:20:52;94929.94;;;15.50;62.32
69171;BME280;56279;47.902;12.308;2023-05-22T00:22:53;94927.63;;;15.48;62.28
69171;BME280;56279;47.902;12.308;2023-05-22T00:24:57;94937.81;;;15.46;62.06
69171;BME280;56279;47.902;12.308;2023-05-22T00:26:58;94936.53;;;15.44;62.35
69171;BME280;56279;47.902;12.308;2023-05-22T00:28:59;94938.72;;;15.42;62.29
69171;BME280;56279;47.902;12.308;2023-05-22T00:31:00;94934.81;;;15.39;62.63
69171;BME280;56279;47.902;12.308;2023-05-22T00:33:02;94941.06;;;15.35;62.76
69171;BME280;56279;47.902;12.308;2023-05-22T00:35:04;94940.16;;;15.31;63.29
69171;BME280;56279;47.902;12.308;2023-05-22T00:37:06;94938.44;;;15.26;63.21
69171;BME280;56279;47.902;12.308;2023-05-22T00:39:08;94944.06;;;15.24;63.03
69171;BME280;56279;47.902;12.308;2023-05-22T00:41:09;94940.13;;;15.22;62.64
69171;BME280;56279;47.902;12.308;2023-05-22T00:43:11;94942.34;;;15.20;63.02
69171;BME280;56279;47.902;12.308;2023-05-22T00:45:14;94945.31;;;15.18;63.17
69171;BME280;56279;47.902;12.308;2023-05-22T00:47:15;94939.06;;;15.14;63.04
69171;BME280;56279;47.902;12.308;2023-05-22T00:49:16;94934.84;;;15.13;63.13
69171;BME280;56279;47.902;12.308;2023-05-22T00:51:22;94935.94;;;15.12;63.18
69171;BME280;56279;47.902;12.308;2023-05-22T00:53:27;94941.25;;;15.12;62.94
69171;BME280;56279;47.902;12.308;2023-05-22T00:55:28;94934.84;;;15.13;62.72
69171;BME280;56279;47.902;12.308;2023-05-22T00:57:31;94938.59;;;15.12;63.03
69171;BME280;56279;47.902;12.308;2023-05-22T00:59:34;94940.47;;;15.12;63.01
69171;BME280;56279;47.902;12.308;2023-05-22T01:01:36;94945.81;;;15.12;62.81
69171;BME280;56279;47.902;12.308;2023-05-22T01:03:42;94935.94;;;15.12;62.93
69171;BME280;56279;47.902;12.308;2023-05-22T01:05:46;94935.94;;;15.12;62.97
69171;BME280;56279;47.902;12.308;2023-05-22T01:07:47;94941.25;;;15.12;63.01
69171;BME280;56279;47.902;12.308;2023-05-22T01:09:48;94946.56;;;15.12;62.88
69171;BME280;56279;47.902;12.308;2023-05-22T01:11:57;94940.47;;;15.12;62.83
69171;BME280;56279;47.902;12.308;2023-05-22T01:14:32;94943.44;;;15.10;62.37
69171;BME280;56279;47.902;12.308;2023-05-22T01:21:22;94940.78;;;15.02;63.39
69171;BME280;56279;47.902;12.308;2023-05-22T01:31:02;94946.72;;;14.73;64.80
69171;BME280;56279;47.902;12.308;2023-05-22T01:33:13;94946.72;;;14.65;65.36
69171;BME280;56279;47.902;12.308;2023-05-22T01:35:16;94952.50;;;14.58;65.71
69171;BME280;56279;47.902;12.308;2023-05-22T01:37:19;94957.47;;;14.51;65.89
69171;BME280;56279;47.902;12.308;2023-05-22T01:39:23;94960.75;;;14.48;66.04
69171;BME280;56279;47.902;12.308;2023-05-22T01:41:29;94962.75;;;14.42;66.19
69171;BME280;56279;47.902;12.308;2023-05-22T01:43:30;94955.72;;;14.38;66.56
69171;BME280;56279;47.902;12.308;2023-05-22T01:45:33;94963.34;;;14.31;67.14
69171;BME280;56279;47.902;12.308;2023-05-22T01:47:36;94962.69;;;14.25;67.44
69171;BME280;56279;47.902;12.308;2023-05-22T01:49:38;94956.75;;;14.20;67.59
69171;BME280;56279;47.902;12.308;2023-05-22T01:51:52;94962.50;;;14.13;67.55
69171;BME280;56279;47.902;12.308;2023-05-22T01:54:21;94964.03;;;14.06;68.01
69171;BME280;56279;47.902;12.308;2023-05-22T01:56:35;94959.97;;;14.00;68.36
69171;BME280;56279;47.902;12.308;2023-05-22T01:58:55;94962.28;;;13.93;68.47
69171;BME280;56279;47.902;12.308;2023-05-22T02:00:59;94959.91;;;13.91;68.56
69171;BME280;56279;47.902;12.308;2023-05-22T02:03:06;94959.91;;;13.91;68.35
69171;BME280;56279;47.902;12.308;2023-05-22T02:05:10;94966.47;;;13.94;68.22
69171;BME280;56279;47.902;12.308;2023-05-22T02:07:14;94958.69;;;13.97;68.10
69171;BME280;56279;47.902;12.308;2023-05-22T02:09:18;94959.47;;;13.98;68.40
69171;BME280;56279;47.902;12.308;2023-05-22T02:11:23;94963.22;;;13.97;68.51
69171;BME280;56279;47.902;12.308;2023-05-22T02:13:27;94962.28;;;13.93;68.91
69171;BME280;56279;47.902;12.308;2023-05-22T02:15:29;94957.88;;;13.88;68.57
69171;BME280;56279;47.902;12.308;2023-05-22T02:17:35;94958.31;;;13.81;68.73
69171;BME280;56279;47.902;12.308;2023-05-22T02:19:40;94949.41;;;13.77;68.96
69171;BME280;56279;47.902;12.308;2023-05-22T02:21:41;94951.88;;;13.74;68.87
69171;BME280;56279;47.902;12.308;2023-05-22T02:23:43;94958.09;;;13.69;69.25
69171;BME280;56279;47.902;12.308;2023-05-22T02:25:44;94962.44;;;13.65;69.77
69171;BME280;56279;47.902;12.308;2023-05-22T02:27:46;94947.16;;;13.62;70.42
69171;BME280;56279;47.902;12.308;2023-05-22T02:29:48;94950.72;;;13.58;70.79
69171;BME280;56279;47.902;12.308;2023-05-22T02:31:52;94948.97;;;13.53;71.05
69171;BME280;56279;47.902;12.308;2023-05-22T02:33:54;94944.28;;;13.50;71.16
69171;BME280;56279;47.902;12.308;2023-05-22T02:35:56;94957.06;;;13.48;71.04
69171;BME280;56279;47.902;12.308;2023-05-22T02:37:58;94958.13;;;13.47;71.60
69171;BME280;56279;47.902;12.308;2023-05-22T02:39:59;94967.94;;;13.47;71.63
69171;BME280;56279;47.902;12.308;2023-05-22T02:42:03;94971.22;;;13.44;71.65
69171;BME280;56279;47.902;12.308;2023-05-22T02:44:05;94965.72;;;13.40;72.36
69171;BME280;56279;47.902;12.308;2023-05-22T02:46:06;94959.94;;;13.38;72.81
69171;BME280;56279;47.902;12.308;2023-05-22T02:48:08;94960.84;;;13.34;73.04
69171;BME280;56279;47.902;12.308;2023-05-22T02:50:09;94962.25;;;13.31;73.03
69171;BME280;56279;47.902;12.308;2023-05-22T02:52:11;94958.63;;;13.27;73.23
69171;BME280;56279;47.902;12.308;2023-05-22T02:54:14;94962.34;;;13.26;73.52
69171;BME280;56279;47.902;12.308;2023-05-22T02:56:16;94967.19;;;13.24;72.99
69171;BME280;56279;47.902;12.308;2023-05-22T02:58:18;94969.66;;;13.21;73.32
69171;BME280;56279;47.902;12.308;2023-05-22T03:00:21;94963.56;;;13.20;73.62
69171;BME280;56279;47.902;12.308;2023-05-22T03:02:24;94968.88;;;13.20;73.25
69171;BME280;56279;47.902;12.308;2023-05-22T03:04:28;94968.88;;;13.20;73.56
69171;BME280;56279;47.902;12.308;2023-05-22T03:06:29;94962.78;;;13.20;73.47
69171;BME280;56279;47.902;12.308;2023-05-22T03:08:32;94967.63;;;13.18;73.99
69171;BME280;56279;47.902;12.308;2023-05-22T03:10:34;94967.41;;;13.14;74.09
69171;BME280;56279;47.902;12.308;2023-05-22T03:12:35;94976.78;;;13.11;74.22
69171;BME280;56279;47.902;12.308;2023-05-22T03:14:36;94975.19;;;13.10;74.22
69171;BME280;56279;47.902;12.308;2023-05-22T03:16:38;94979.22;;;13.08;74.29
69171;BME280;56279;47.902;12.308;2023-05-22T03:18:40;94969.19;;;13.05;74.31
69171;BME280;56279;47.902;12.308;2023-05-22T03:20:42;94983.06;;;13.02;74.55
69171;BME280;56279;47.902;12.308;2023-05-22T03:22:43;94978.03;;;13.00;75.02
69171;BME280;56279;47.902;12.308;2023-05-22T03:24:47;94985.50;;;12.98;74.92
69171;BME280;56279;47.902;12.308;2023-05-22T03:26:50;94987.69;;;12.96;75.05
69171;BME280;56279;47.902;12.308;2023-05-22T03:28:58;94985.03;;;12.96;75.45
69171;BME280;56279;47.902;12.308;2023-05-22T03:31:00;94989.53;;;12.96;75.43
69171;BME280;56279;47.902;12.308;2023-05-22T03:33:08;94995.13;;;12.94;75.79
69171;BME280;56279;47.902;12.308;2023-05-22T03:35:09;94998.59;;;12.95;75.72
69171;BME280;56279;47.902;12.308;2023-05-22T03:37:13;94994.03;;;12.95;76.17
69171;BME280;56279;47.902;12.308;2023-05-22T03:39:14;94993.44;;;12.98;76.23
69171;BME280;56279;47.902;12.308;2023-05-22T03:41:23;94991.59;;;12.99;76.00
69171;BME280;56279;47.902;12.308;2023-05-22T03:43:26;94991.59;;;12.99;75.77
69171;BME280;56279;47.902;12.308;2023-05-22T03:45:27;94991.28;;;13.00;75.80
69171;BME280;56279;47.902;12.308;2023-05-22T03:47:28;94998.75;;;12.98;75.61
69171;BME280;56279;47.902;12.308;2023-05-22T03:49:30;94987.69;;;12.96;75.67
69171;BME280;56279;47.902;12.308;2023-05-22T03:51:31;94993.75;;;12.97;76.12
69171;BME280;56279;47.902;12.308;2023-05-22T03:53:34;94990.00;;;12.98;75.97
69171;BME280;56279;47.902;12.308;2023-05-22T03:55:35;94994.56;;;12.97;76.24
69171;BME280;56279;47.902;12.308;2023-05-22T03:57:37;95001.41;;;12.98;76.48
69171;BME280;56279;47.902;12.308;2023-05-22T03:59:38;94999.22;;;13.00;76.73
69171;BME280;56279;47.902;12.308;2023-05-22T04:01:43;94998.94;;;13.02;76.62
69171;BME280;56279;47.902;12.308;2023-05-22T04:03:48;95001.81;;;13.05;76.68
69171;BME280;56279;47.902;12.308;2023-05-22T04:05:52;95006.19;;;13.10;76.69
69171;BME280;56279;47.902;12.308;2023-05-22T04:07:53;95007.16;;;13.14;76.55
69171;BME280;56279;47.902;12.308;2023-05-22T04:09:55;95006.25;;;13.18;76.70
69171;BME280;56279;47.902;12.308;2023-05-22T04:11:56;95009.59;;;13.24;76.72
69171;BME280;56279;47.902;12.308;2023-05-22T04:14:02;95009.47;;;13.29;76.81
69171;BME280;56279;47.902;12.308;2023-05-22T04:16:04;95001.88;;;13.36;76.59
69171;BME280;56279;47.902;12.308;2023-05-22T04:18:06;95007.53;;;13.43;76.32
69171;BME280;56279;47.902;12.308;2023-05-22T04:20:08;95002.59;;;13.50;76.30
69171;BME280;56279;47.902;12.308;2023-05-22T04:22:09;95007.47;;;13.57;75.87
69171;BME280;56279;47.902;12.308;2023-05-22T04:24:11;95010.16;;;13.65;76.02
69171;BME280;56279;47.902;12.308;2023-05-22T04:26:14;95015.06;;;13.72;75.48
69171;BME280;56279;47.902;12.308;2023-05-22T04:28:18;95012.75;;;13.79;75.11
69171;BME280;56279;47.902;12.308;2023-05-22T04:30:22;95014.06;;;13.90;74.98
69171;BME280;56279;47.902;12.308;2023-05-22T04:34:56;95009.31;;;14.09;74.40
69171;BME280;56279;47.902;12.308;2023-05-22T04:37:06;95013.88;;;14.17;74.13
69171;BME280;56279;47.902;12.308;2023-05-22T04:39:07;95017.22;;;14.31;73.65
69171;BME280;56279;47.902;12.308;2023-05-22T04:41:09;95019.31;;;14.43;72.60
69171;BME280;56279;47.902;12.308;2023-05-22T04:43:11;95021.53;;;14.58;72.30
69171;BME280;56279;47.902;12.308;2023-05-22T04:45:13;95024.22;;;14.67;71.33
69171;BME280;56279;47.902;12.308;2023-05-22T04:47:15;95027.66;;;14.76;70.85
69171;BME280;56279;47.902;12.308;2023-05-22T04:49:18;95030.50;;;14.79;70.26
69171;BME280;56279;47.902;12.308;2023-05-22T04:51:20;95027.53;;;14.81;69.81
69171;BME280;56279;47.902;12.308;2023-05-22T04:53:23;95030.34;;;14.84;69.41
69171;BME280;56279;47.902;12.308;2023-05-22T04:55:25;95034.75;;;14.89;69.17
69171;BME280;56279;47.902;12.308;2023-05-22T04:57:26;95026.91;;;14.92;69.04
69171;BME280;56279;47.902;12.308;2023-05-22T04:59:28;95035.81;;;14.96;68.87
69171;BME280;56279;47.902;12.308;2023-05-22T05:01:29;95035.53;;;14.98;68.91
69171;BME280;56279;47.902;12.308;2023-05-22T05:03:31;95037.88;;;14.99;68.65
69171;BME280;56279;47.902;12.308;2023-05-22T05:05:34;95043.19;;;14.99;68.64
69171;BME280;56279;47.902;12.308;2023-05-22T05:07:37;95043.19;;;14.99;68.28
69171;BME280;56279;47.902;12.308;2023-05-22T05:09:39;95045.06;;;14.99;68.47
69171;BME280;56279;47.902;12.308;2023-05-22T05:11:40;95040.53;;;14.99;68.41
69171;BME280;56279;47.902;12.308;2023-05-22T05:13:43;95040.22;;;15.01;68.25
69171;BME280;56279;47.902;12.308;2023-05-22T05:15:44;95044.13;;;15.03;68.24
69171;BME280;56279;47.902;12.308;2023-05-22T05:17:46;95047.75;;;15.07;67.86
69171;BME280;56279;47.902;12.308;2023-05-22T05:19:47;95035.38;;;15.11;68.07
69171;BME280;56279;47.902;12.308;2023-05-22T05:21:49;95039.44;;;15.17;67.94
69171;BME280;56279;47.902;12.308;2023-05-22T05:23:50;95041.94;;;15.22;67.48
69171;BME280;56279;47.902;12.308;2023-05-22T05:25:52;95047.44;;;15.26;67.71
69171;BME280;56279;47.902;12.308;2023-05-22T05:27:55;95047.91;;;15.28;67.12
69171;BME280;56279;47.902;12.308;2023-05-22T05:29:58;95041.19;;;15.31;67.13
69171;BME280;56279;47.902;12.308;2023-05-22T05:32:16;95041.66;;;15.33;67.30
69171;BME280;56279;47.902;12.308;2023-05-22T05:34:40;95043.66;;;15.36;67.63
69171;BME280;56279;47.902;12.308;2023-05-22T05:37:34;95047.13;;;15.36;67.26
69171;BME280;56279;47.902;12.308;2023-05-22T05:39:36;95047.28;;;15.40;66.71
69171;BME280;56279;47.902;12.308;2023-05-22T05:41:43;95050.88;;;15.44;66.67
69171;BME280;56279;47.902;12.308;2023-05-22T05:43:45;95049.97;;;15.48;66.37
69171;BME280;56279;47.902;12.308;2023-05-22T05:45:47;95047.16;;;15.53;65.88
69171;BME280;56279;47.902;12.308;2023-05-22T05:47:50;95050.75;;;15.57;66.39
69171;BME280;56279;47.902;12.308;2023-05-22T05:49:53;95047.91;;;15.62;66.05
69171;BME280;56279;47.902;12.308;2023-05-22T05:51:55;95040.88;;;15.66;66.64
69171;BME280;56279;47.902;12.308;2023-05-22T05:53:57;95039.16;;;15.70;66.61
69171;BME280;56279;47.902;12.308;2023-05-22T05:56:00;95035.56;;;15.75;66.56
69171;BME280;56279;47.902;12.308;2023-05-22T05:58:04;95037.56;;;15.78;66.36
69171;BME280;56279;47.902;12.308;2023-05-22T06:00:22;95035.66;;;15.87;66.65
69171;BME280;56279;47.902;12.308;2023-05-22T06:02:25;95042.41;;;15.93;66.68
69171;BME280;56279;47.902;12.308;2023-05-22T06:04:30;95046.16;;;16.01;66.93
69171;BME280;56279;47.902;12.308;2023-05-22T06:06:31;95043.78;;;16.08;67.05
69171;BME280;56279;47.902;12.308;2023-05-22T06:08:51;95046.41;;;16.16;67.31
69171;BME280;56279;47.902;12.308;2023-05-22T06:11:00;95042.91;;;16.24;66.97
69171;BME280;56279;47.902;12.308;2023-05-22T06:13:07;95036.78;;;16.32;67.04
69171;BME280;56279;47.902;12.308;2023-05-22T06:15:09;95044.75;;;16.41;66.97
69171;BME280;56279;47.902;12.308;2023-05-22T06:17:15;95044.41;;;16.51;66.78
69171;BME280;56279;47.902;12.308;2023-05-22T06:19:18;95046.28;;;16.59;67.34
69171;BME280;56279;47.902;12.308;2023-05-22T06:21:19;95045.44;;;16.67;67.19
69171;BME280;56279;47.902;12.308;2023-05-22T06:23:23;95043.84;;;16.75;67.15
69171;BME280;56279;47.902;12.308;2023-05-22T06:25:25;95041.91;;;16.84;66.89
69171;BME280;56279;47.902;12.308;2023-05-22T06:27:29;95040.41;;;16.95;66.80
69171;BME280;56279;47.902;12.308;2023-05-22T06:29:31;95040.97;;;17.09;66.64
69171;BME280;56279;47.902;12.308;2023-05-22T06:31:32;95038.38;;;17.21;65.96
69171;BME280;56279;47.902;12.308;2023-05-22T06:33:36;95043.31;;;17.31;65.21
69171;BME280;56279;47.902;12.308;2023-05-22T06:39:09;95039.56;;;17.53;64.44
69171;BME280;56279;47.902;12.308;2023-05-22T06:41:39;95033.25;;;17.57;64.29
69171;BME280;56279;47.902;12.308;2023-05-22T06:43:46;95037.28;;;17.63;64.29
69171;BME280;56279;47.902;12.308;2023-05-22T06:45:47;95036.41;;;17.71;63.83
69171;BME280;56279;47.902;12.308;2023-05-22T06:47:57;95034.91;;;17.82;63.29
69171;BME280;56279;47.902;12.308;2023-05-22T06:50:00;95035.59;;;17.91;63.34
69171;BME280;56279;47.902;12.308;2023-05-22T06:52:01;95034.25;;;17.98;62.72
69171;BME280;56279;47.902;12.308;2023-05-22T06:54:03;95041.09;;;18.07;62.39
69171;BME280;56279;47.902;12.308;2023-05-22T06:56:07;95040.66;;;18.17;61.90
69171;BME280;56279;47.902;12.308;2023-05-22T06:58:21;95045.91;;;18.26;61.51
69171;BME280;56279;47.902;12.308;2023-05-22T07:00:23;95036.25;;;18.33;61.37
69171;BME280;56279;47.902;12.308;2023-05-22T07:02:49;95036.13;;;18.42;61.21
69171;BME280;56279;47.902;12.308;2023-05-22T07:05:21;95036.38;;;18.49;60.35
69171;BME280;56279;47.902;12.308;2023-05-22T07:07:31;95033.63;;;18.57;59.48
69171;BME280;56279;47.902;12.308;2023-05-22T07:09:35;95042.63;;;18.65;58.85
69171;BME280;56279;47.902;12.308;2023-05-22T07:11:44;95038.41;;;18.76;58.56
69171;BME280;56279;47.902;12.308;2023-05-22T07:14:03;95038.28;;;18.85;58.49
69171;BME280;56279;47.902;12.308;2023-05-22T07:16:05;95036.63;;;18.92;58.32
69171;BME280;56279;47.902;12.308;2023-05-22T07:18:09;95043.72;;;19.00;58.19
69171;BME280;56279;47.902;12.308;2023-05-22T07:20:15;95038.28;;;19.09;58.01
69171;BME280;56279;47.902;12.308;2023-05-22T07:22:44;95039.69;;;19.18;58.28
69171;BME280;56279;47.902;12.308;2023-05-22T07:24:45;95041.47;;;19.26;58.35
69171;BME280;56279;47.902;12.308;2023-05-22T07:26:48;95037.00;;;19.30;58.21
69171;BME280;56279;47.902;12.308;2023-05-22T07:28:51;95048.84;;;19.42;57.47
69171;BME280;56279;47.902;12.308;2023-05-22T07:30:54;95041.44;;;19.51;57.25
69171;BME280;56279;47.902;12.308;2023-05-22T07:32:56;95042.41;;;19.58;56.36
69171;BME280;56279;47.902;12.308;2023-05-22T07:34:58;95041.50;;;19.66;55.40
69171;BME280;56279;47.902;12.308;2023-05-22T07:37:05;95045.25;;;19.77;55.48
69171;BME280;56279;47.902;12.308;2023-05-22T07:39:07;95038.97;;;19.85;54.61
69171;BME280;56279;47.902;12.308;2023-05-22T07:41:13;95045.28;;;19.93;54.12
69171;BME280;56279;47.902;12.308;2023-05-22T07:43:15;95046.94;;;19.97;53.68
69171;BME280;56279;47.902;12.308;2023-05-22T07:45:16;95051.72;;;20.04;53.40
69171;BME280;56279;47.902;12.308;2023-05-22T07:47:22;95053.56;;;20.16;52.88
69171;BME280;56279;47.902;12.308;2023-05-22T07:49:26;95048.41;;;20.23;53.41
69171;BME280;56279;47.902;12.308;2023-05-22T07:51:33;95053.41;;;20.24;53.64
69171;BME280;56279;47.902;12.308;2023-05-22T07:53:35;95044.69;;;20.27;52.70
69171;BME280;56279;47.902;12.308;2023-05-22T07:55:40;95043.66;;;20.32;53.62
69171;BME280;56279;47.902;12.308;2023-05-22T07:57:42;95045.38;;;20.40;53.38
69171;BME280;56279;47.902;12.308;2023-05-22T07:59:54;95046.75;;;20.49;52.79
69171;BME280;56279;47.902;12.308;2023-05-22T08:01:58;95047.03;;;20.60;52.24
69171;BME280;56279;47.902;12.308;2023-05-22T08:04:04;95044.97;;;20.69;51.46
69171;BME280;56279;47.902;12.308;2023-05-22T08:06:11;95040.53;;;20.77;52.14
69171;BME280;56279;47.902;12.308;2023-05-22T08:08:17;95045.28;;;20.83;51.40
69171;BME280;56279;47.902;12.308;2023-05-22T08:10:18;95035.06;;;20.89;51.15
69171;BME280;56279;47.902;12.308;2023-05-22T08:12:20;95042.56;;;20.99;50.54
69171;BME280;56279;47.902;12.308;2023-05-22T08:14:22;95036.72;;;21.09;49.92
69171;BME280;56279;47.902;12.308;2023-05-22T08:16:25;95040.66;;;21.15;50.18
69171;BME280;56279;47.902;12.308;2023-05-22T08:18:29;95038.41;;;21.17;50.40
69171;BME280;56279;47.902;12.308;2023-05-22T08:20:33;95035.88;;;21.24;50.40
69171;BME280;56279;47.902;12.308;2023-05-22T08:22:38;95030.38;;;21.36;50.87
69171;BME280;56279;47.902;12.308;2023-05-22T08:24:39;95032.94;;;21.48;50.62
69171;BME280;56279;47.902;12.308;2023-05-22T08:26:40;95030.84;;;21.57;50.89
69171;BME280;56279;47.902;12.308;2023-05-22T08:28:43;95039.41;;;21.63;48.98
69171;BME280;56279;47.902;12.308;2023-05-22T08:30:44;95030.19;;;21.64;48.62
69171;BME280;56279;47.902;12.308;2023-05-22T08:32:46;95032.59;;;21.69;48.80
69171;BME280;56279;47.902;12.308;2023-05-22T08:34:47;95031.53;;;21.73;48.17
69171;BME280;56279;47.902;12.308;2023-05-22T08:36:55;95031.34;;;21.82;47.91
69171;BME280;56279;47.902;12.308;2023-05-22T08:38:56;95030.00;;;21.91;47.25
69171;BME280;56279;47.902;12.308;2023-05-22T08:40:58;95034.03;;;22.01;47.42
69171;BME280;56279;47.902;12.308;2023-05-22T08:43:00;95026.94;;;22.12;46.74
69171;BME280;56279;47.902;12.308;2023-05-22T08:45:05;95032.50;;;22.23;46.68
69171;BME280;56279;47.902;12.308;2023-05-22T08:47:08;95031.91;;;22.33;46.64
69171;BME280;56279;47.902;12.308;2023-05-22T08:49:15;95030.59;;;22.46;46.02
69171;BME280;56279;47.902;12.308;2023-05-22T08:51:18;95031.22;;;22.58;45.94
69171;BME280;56279;47.902;12.308;2023-05-22T08:53:27;95032.97;;;22.70;46.22
69171;BME280;56279;47.902;12.308;2023-05-22T08:55:29;95023.50;;;22.80;46.20
69171;BME280;56279;47.902;12.308;2023-05-22T08:57:32;95018.53;;;22.82;46.08
69171;BME280;56279;47.902;12.308;2023-05-22T09:01:52;95027.22;;;22.98;46.22
69171;BME280;56279;47.902;12.308;2023-05-22T09:03:58;95020.47;;;23.07;45.73
69171;BME280;56279;47.902;12.308;2023-05-22T09:06:02;95020.25;;;23.19;45.42
69171;BME280;56279;47.902;12.308;2023-05-22T09:08:03;95024.94;;;23.26;45.31
69171;BME280;56279;47.902;12.308;2023-05-22T09:10:06;95022.66;;;23.28;45.34
69171;BME280;56279;47.902;12.308;2023-05-22T09:12:09;95026.56;;;23.30;44.28
69171;BME280;56279;47.902;12.308;2023-05-22T09:14:11;95020.00;;;23.31;44.30
69171;BME280;56279;47.902;12.308;2023-05-22T09:16:12;95015.06;;;23.33;44.66
69171;BME280;56279;47.902;12.308;2023-05-22T09:18:14;95021.28;;;23.38;44.63
69171;BME280;56279;47.902;12.308;2023-05-22T09:20:15;95019.41;;;23.42;44.82
69171;BME280;56279;47.902;12.308;2023-05-22T09:22:17;95016.38;;;23.43;44.72
69171;BME280;56279;47.902;12.308;2023-05-22T09:24:18;95021.38;;;23.45;44.65
69171;BME280;56279;47.902;12.308;2023-05-22T09:26:20;95025.69;;;23.53;44.81
69171;BME280;56279;47.902;12.308;2023-05-22T09:28:21;95020.78;;;23.58;44.05
69171;BME280;56279;47.902;12.308;2023-05-22T09:30:25;95025.06;;;23.63;44.68
69171;BME280;56279;47.902;12.308;2023-05-22T09:32:29;95024.75;;;23.68;44.87
69171;BME280;56279;47.902;12.308;2023-05-22T09:34:33;95021.31;;;23.71;43.93
69171;BME280;56279;47.902;12.308;2023-05-22T09:36:36;95022.06;;;23.68;44.36
69171;BME280;56279;47.902;12.308;2023-05-22T09:38:38;95024.75;;;23.68;43.41
69171;BME280;56279;47.902;12.308;2023-05-22T09:40:40;95023.25;;;23.70;43.99
69171;BME280;56279;47.902;12.308;2023-05-22T09:42:42;95021.03;;;23.79;44.55
69171;BME280;56279;47.902;12.308;2023-05-22T09:44:47;95031.19;;;23.89;44.01
69171;BME280;56279;47.902;12.308;2023-05-22T09:46:49;95024.28;;;23.95;44.74
69171;BME280;56279;47.902;12.308;2023-05-22T09:48:51;95028.19;;;24.01;44.15
69171;BME280;56279;47.902;12.308;2023-05-22T09:50:53;95027.06;;;24.02;44.52
69171;BME280;56279;47.902;12.308;2023-05-22T09:52:55;95018.59;;;24.04;43.57
69171;BME280;56279;47.902;12.308;2023-05-22T09:54:59;95018.25;;;24.05;43.13
69171;BME280;56279;47.902;12.308;2023-05-22T09:57:05;95019.09;;;24.10;43.28
69171;BME280;56279;47.902;12.308;2023-05-22T09:59:11;95014.16;;;24.15;42.87
69171;BME280;56279;47.902;12.308;2023-05-22T10:01:13;95011.09;;;24.20;43.04
69171;BME280;56279;47.902;12.308;2023-05-22T10:03:21;95009.56;;;24.23;43.09
69171;BME280;56279;47.902;12.308;2023-05-22T10:05:29;95009.22;;;24.24;43.81
69171;BME280;56279;47.902;12.308;2023-05-22T10:07:35;95005.84;;;24.34;44.63
69171;BME280;56279;47.902;12.308;2023-05-22T10:09:40;95007.47;;;24.46;44.82
69171;BME280;56279;47.902;12.308;2023-05-22T10:11:42;95008.72;;;24.55;43.49
69171;BME280;56279;47.902;12.308;2023-05-22T10:13:44;95008.75;;;24.59;42.81
69171;BME280;56279;47.902;12.308;2023-05-22T10:15:49;95007.19;;;24.58;42.18
69171;BME280;56279;47.902;12.308;2023-05-22T10:17:51;95005.25;;;24.55;41.90
69171;BME280;56279;47.902;12.308;2023-05-22T10:19:53;95000.22;;;24.53;41.78
69171;BME280;56279;47.902;12.308;2023-05-22T10:21:55;95003.69;;;24.50;42.49
69171;BME280;56279;47.902;12.308;2023-05-22T10:24:01;95003.25;;;24.48;42.52
69171;BME280;56279;47.902;12.308;2023-05-22T10:26:04;95000.56;;;24.48;41.72
69171;BME280;56279;47.902;12.308;2023-05-22T10:28:07;95004.03;;;24.49;42.35
69171;BME280;56279;47.902;12.308;2023-05-22T10:35:14;95003.38;;;24.62;42.72
69171;BME280;56279;47.902;12.308;2023-05-22T10:39:42;95001.56;;;24.73;43.21
69171;BME280;56279;47.902;12.308;2023-05-22T10:41:47;94990.41;;;24.79;42.75
69171;BME280;56279;47.902;12.308;2023-05-22T10:43:49;94995.06;;;24.82;42.58
69171;BME280;56279;47.902;12.308;2023-05-22T10:46:01;94996.25;;;24.84;42.89
69171;BME280;56279;47.902;12.308;2023-05-22T10:48:04;94997.03;;;24.85;41.77
69171;BME280;56279;47.902;12.308;2023-05-22T10:50:10;94995.88;;;24.86;43.13
69171;BME280;56279;47.902;12.308;2023-05-22T10:52:12;94995.50;;;24.87;42.21
69171;BME280;56279;47.902;12.308;2023-05-22T10:54:16;94994.41;;;24.95;42.13
69171;BME280;56279;47.902;12.308;2023-05-22T10:56:18;94994.44;;;24.99;41.45
69171;BME280;56279;47.902;12.308;2023-05-22T10:58:30;94991.34;;;25.00;41.54
69171;BME280;56279;47.902;12.308;2023-05-22T11:00:32;94985.19;;;25.03;42.37
69171;BME280;56279;47.902;12.308;2023-05-22T11:02:41;94991.00;;;25.09;42.31
69171;BME280;56279;47.902;12.308;2023-05-22T11:04:42;94996.84;;;25.11;42.25
69171;BME280;56279;47.902;12.308;2023-05-22T11:07:01;94988.31;;;25.09;41.72
69171;BME280;56279;47.902;12.308;2023-05-22T11:09:41;94989.03;;;24.99;42.42
69171;BME280;56279;47.902;12.308;2023-05-22T11:12:11;94983.25;;;25.00;42.92
69171;BME280;56279;47.902;12.308;2023-05-22T11:14:18;94975.94;;;25.04;42.59
69171;BME280;56279;47.902;12.308;2023-05-22T11:16:20;94974.84;;;25.12;41.96
69171;BME280;56279;47.902;12.308;2023-05-22T11:18:23;94971.00;;;25.17;41.61